Time;durP1;ratioP1;P1;durP2;ratioP2;P2;SDS_P1;SDS_P2;PMS_P1;PMS_P2;Temp;Humidity;BMP_temperature;BMP_pressure;BME280_temperature;BME280_humidity;BME280_pressure;Samples;Min_cycle;Max_cycle;Signal;HPM_P1;HPM_P2
2022/11/05 00:09:31;;;;;;;0.00;0.00;;;;;;;;;;1753600;28;20901;-70
2022/11/05 00:10:25;;;;;;;0.00;0.00;;;;;;;;;;1756109;28;20193;-70
2022/11/05 00:11:16;;;;;;;0.00;0.00;;;;;;;;;;1755903;28;20594;-70
2022/11/05 00:16:44;;;;;;;0.00;0.00;;;;;;;;;;1747946;28;20206;-70
2022/11/05 00:17:35;;;;;;;0.00;0.00;;;;;;;;;;1754240;28;20282;-70
2022/11/05 00:18:27;;;;;;;0.00;0.00;;;;;;;;;;1754051;28;20262;-70
2022/11/05 00:19:20;;;;;;;0.00;0.00;;;;;;;;;;1753941;28;20315;-70
2022/11/05 00:20:12;;;;;;;0.00;0.00;;;;;;;;;;1754397;28;20556;-70
2022/11/05 00:21:04;;;;;;;0.00;0.00;;;;;;;;;;1754859;28;20229;-70
2022/11/05 00:25:28;;;;;;;0.00;0.00;;;;;;;;;;1753694;28;20197;-70
2022/11/05 00:26:19;;;;;;;0.00;0.00;;;;;;;;;;1753646;28;20252;-70
2022/11/05 00:27:11;;;;;;;0.00;0.00;;;;;;;;;;1753734;28;20200;-70
2022/11/05 00:28:03;;;;;;;0.10;0.10;;;;;;;;;;1754410;28;20862;-70
2022/11/05 00:28:55;;;;;;;0.00;0.00;;;;;;;;;;1754187;28;20222;-70
2022/11/05 00:29:46;;;;;;;0.00;0.00;;;;;;;;;;1756047;28;20201;-70
2022/11/05 00:30:38;;;;;;;0.00;0.00;;;;;;;;;;1754547;28;20343;-70
2022/11/05 00:31:29;;;;;;;0.00;0.00;;;;;;;;;;1755327;28;20229;-70
2022/11/05 00:32:20;;;;;;;0.00;0.00;;;;;;;;;;1751382;28;20233;-69
2022/11/05 00:33:13;;;;;;;0.00;0.00;;;;;;;;;;1756245;28;20205;-70
2022/11/05 00:34:04;;;;;;;0.00;0.00;;;;;;;;;;1756832;28;20206;-70
2022/11/05 00:34:57;;;;;;;0.00;0.00;;;;;;;;;;1758818;28;20194;-70
2022/11/05 00:35:49;;;;;;;0.00;0.00;;;;;;;;;;1755768;28;20923;-69
2022/11/05 00:36:40;;;;;;;0.00;0.00;;;;;;;;;;1752513;28;20870;-69
2022/11/05 00:37:32;;;;;;;0.00;0.00;;;;;;;;;;1754486;28;20230;-69
2022/11/05 00:38:23;;;;;;;0.00;0.00;;;;;;;;;;1754360;28;20255;-69
2022/11/05 00:39:15;;;;;;;0.00;0.00;;;;;;;;;;1755111;28;20212;-69
2022/11/05 00:40:07;;;;;;;0.08;0.08;;;;;;;;;;1755368;28;20343;-69
2022/11/05 00:40:59;;;;;;;0.00;0.00;;;;;;;;;;1754569;28;20201;-69
2022/11/05 00:45:15;;;;;;;0.00;0.00;;;;;;;;;;1756939;28;20243;-70
2022/11/05 00:46:07;;;;;;;0.00;0.00;;;;;;;;;;1754387;28;20278;-70
2022/11/05 00:49:29;;;;;;;0.00;0.00;;;;;;;;;;1754054;28;20255;-70
2022/11/05 00:50:22;;;;;;;0.00;0.00;;;;;;;;;;1752784;28;20208;-70
2022/11/05 00:51:14;;;;;;;0.00;0.00;;;;;;;;;;1757919;28;20224;-70
2022/11/05 00:53:12;;;;;;;0.00;0.00;;;;;;;;;;1750054;28;20201;-70
2022/11/05 00:54:03;;;;;;;0.00;0.00;;;;;;;;;;1750447;28;20240;-70
2022/11/05 00:54:54;;;;;;;0.00;0.00;;;;;;;;;;1754180;28;20205;-70
2022/11/05 00:55:47;;;;;;;0.00;0.00;;;;;;;;;;1754676;28;20204;-70
2022/11/05 00:56:38;;;;;;;0.00;0.00;;;;;;;;;;1754645;28;20264;-70
2022/11/05 00:57:29;;;;;;;0.00;0.00;;;;;;;;;;1752069;28;20237;-70
2022/11/05 00:58:21;;;;;;;0.00;0.00;;;;;;;;;;1755047;28;20210;-70
2022/11/05 00:59:12;;;;;;;0.03;0.03;;;;;;;;;;1753983;28;20681;-70
2022/11/05 01:00:05;;;;;;;0.00;0.00;;;;;;;;;;1754092;28;20468;-70
2022/11/05 01:00:58;;;;;;;0.00;0.00;;;;;;;;;;1752715;28;20198;-70
2022/11/05 01:01:49;;;;;;;0.00;0.00;;;;;;;;;;1753265;28;20233;-70
2022/11/05 01:02:40;;;;;;;0.00;0.00;;;;;;;;;;1752537;28;20280;-70
2022/11/05 01:03:34;;;;;;;0.00;0.00;;;;;;;;;;1754709;28;20284;-69
2022/11/05 01:04:25;;;;;;;0.00;0.00;;;;;;;;;;1754408;28;20205;-70
2022/11/05 01:05:17;;;;;;;0.00;0.00;;;;;;;;;;1755153;28;20205;-70
2022/11/05 01:06:11;;;;;;;0.00;0.00;;;;;;;;;;1754306;28;20202;-70
2022/11/05 01:07:03;;;;;;;0.00;0.00;;;;;;;;;;1754803;28;20209;-70
2022/11/05 01:07:55;;;;;;;0.00;0.00;;;;;;;;;;1754594;28;20194;-70
2022/11/05 01:08:47;;;;;;;0.00;0.00;;;;;;;;;;1754572;28;20270;-70
2022/11/05 01:09:38;;;;;;;0.00;0.00;;;;;;;;;;1754644;28;20232;-70
2022/11/05 01:10:30;;;;;;;0.00;0.00;;;;;;;;;;1755000;28;20284;-70
2022/11/05 01:11:31;;;;;;;0.00;0.00;;;;;;;;;;1754791;28;20662;-70
2022/11/05 01:12:23;;;;;;;0.00;0.00;;;;;;;;;;1754082;28;20208;-70
2022/11/05 01:13:17;;;;;;;0.00;0.00;;;;;;;;;;1754698;28;20245;-70
2022/11/05 01:14:10;;;;;;;0.00;0.00;;;;;;;;;;1753464;28;20201;-70
2022/11/05 01:15:03;;;;;;;0.00;0.00;;;;;;;;;;1754200;28;20243;-70
2022/11/05 01:15:55;;;;;;;0.00;0.00;;;;;;;;;;1753513;28;20292;-70
2022/11/05 01:16:46;;;;;;;0.00;0.00;;;;;;;;;;1753678;28;20313;-70
2022/11/05 01:17:38;;;;;;;0.00;0.00;;;;;;;;;;1754363;28;20245;-70
2022/11/05 01:18:30;;;;;;;0.00;0.00;;;;;;;;;;1754206;28;20216;-69
2022/11/05 01:19:21;;;;;;;0.00;0.00;;;;;;;;;;1753139;28;20216;-70
2022/11/05 01:20:13;;;;;;;0.00;0.00;;;;;;;;;;1754932;28;20213;-70
2022/11/05 01:21:11;;;;;;;0.00;0.00;;;;;;;;;;1750662;28;20213;-69
2022/11/05 01:22:03;;;;;;;0.00;0.00;;;;;;;;;;1752143;28;20564;-70
2022/11/05 01:22:54;;;;;;;0.03;0.03;;;;;;;;;;1750599;28;20284;-70
2022/11/05 01:23:46;;;;;;;0.00;0.00;;;;;;;;;;1754407;28;20209;-70
2022/11/05 01:24:37;;;;;;;0.00;0.00;;;;;;;;;;1750195;28;20255;-70
2022/11/05 01:25:29;;;;;;;0.00;0.00;;;;;;;;;;1748965;28;20206;-70
2022/11/05 01:26:20;;;;;;;0.00;0.00;;;;;;;;;;1754568;28;20214;-70
2022/11/05 01:27:11;;;;;;;0.00;0.00;;;;;;;;;;1754604;28;20690;-70
2022/11/05 01:28:04;;;;;;;0.00;0.00;;;;;;;;;;1754670;28;20288;-70
2022/11/05 01:28:55;;;;;;;0.00;0.00;;;;;;;;;;1754376;28;20221;-70
2022/11/05 01:29:47;;;;;;;0.00;0.00;;;;;;;;;;1750827;28;20254;-70
2022/11/05 01:30:40;;;;;;;0.00;0.00;;;;;;;;;;1750153;28;20222;-70
2022/11/05 01:31:31;;;;;;;0.00;0.00;;;;;;;;;;1749762;28;20209;-70
2022/11/05 01:32:22;;;;;;;0.00;0.00;;;;;;;;;;1752950;28;20205;-70
2022/11/05 01:33:14;;;;;;;0.00;0.00;;;;;;;;;;1754122;28;20204;-69
2022/11/05 01:34:05;;;;;;;0.00;0.00;;;;;;;;;;1754371;28;20213;-70
2022/11/05 01:34:57;;;;;;;0.00;0.00;;;;;;;;;;1753493;28;20197;-70
2022/11/05 01:35:50;;;;;;;0.00;0.00;;;;;;;;;;1754674;28;20642;-69
2022/11/05 01:36:43;;;;;;;0.00;0.00;;;;;;;;;;1754699;28;20212;-69
2022/11/05 01:37:35;;;;;;;0.00;0.00;;;;;;;;;;1751942;28;20257;-70
2022/11/05 01:38:27;;;;;;;0.05;0.05;;;;;;;;;;1754795;28;20198;-69
2022/11/05 01:39:18;;;;;;;0.00;0.00;;;;;;;;;;1754134;28;20224;-70
2022/11/05 01:40:12;;;;;;;0.00;0.00;;;;;;;;;;1754198;28;20209;-70
2022/11/05 01:41:03;;;;;;;0.00;0.00;;;;;;;;;;1752229;28;20587;-70
2022/11/05 01:41:55;;;;;;;0.00;0.00;;;;;;;;;;1754437;28;20254;-69
2022/11/05 01:42:46;;;;;;;0.00;0.00;;;;;;;;;;1752360;28;20245;-69
2022/11/05 01:43:46;;;;;;;0.00;0.00;;;;;;;;;;1754457;28;20198;-69
2022/11/05 01:45:04;;;;;;;0.00;0.00;;;;;;;;;;1753277;28;20241;-70
2022/11/05 01:45:57;;;;;;;0.00;0.00;;;;;;;;;;1734618;28;20357;-70
2022/11/05 01:46:49;;;;;;;0.00;0.00;;;;;;;;;;1754651;28;20225;-70
2022/11/05 01:47:55;;;;;;;0.00;0.00;;;;;;;;;;1752516;28;20202;-69
2022/11/05 01:48:48;;;;;;;0.00;0.00;;;;;;;;;;1754278;28;20325;-69
2022/11/05 01:49:39;;;;;;;0.00;0.00;;;;;;;;;;1753596;28;20202;-70
2022/11/05 01:50:36;;;;;;;0.00;0.00;;;;;;;;;;1754690;28;20224;-70
2022/11/05 01:51:28;;;;;;;0.00;0.00;;;;;;;;;;1745221;28;20218;-69
2022/11/05 01:52:22;;;;;;;0.00;0.00;;;;;;;;;;1755105;28;20240;-70
2022/11/05 01:53:17;;;;;;;0.00;0.00;;;;;;;;;;1756599;28;20244;-70
2022/11/05 01:54:09;;;;;;;0.00;0.00;;;;;;;;;;1750204;28;20216;-69
2022/11/05 01:55:03;;;;;;;0.00;0.00;;;;;;;;;;1764242;27;20195;-69
2022/11/05 01:55:56;;;;;;;0.00;0.00;;;;;;;;;;1764452;27;20240;-70
2022/11/05 01:56:50;;;;;;;0.00;0.00;;;;;;;;;;1761699;28;20208;-70
2022/11/05 01:57:42;;;;;;;0.00;0.00;;;;;;;;;;1759972;28;20221;-69
2022/11/05 01:58:37;;;;;;;0.00;0.00;;;;;;;;;;1759267;28;20234;-69
2022/11/05 01:59:29;;;;;;;0.00;0.00;;;;;;;;;;1760917;28;20248;-70
2022/11/05 02:00:21;;;;;;;0.00;0.00;;;;;;;;;;1754899;28;20653;-69
2022/11/05 02:01:12;;;;;;;0.00;0.00;;;;;;;;;;1758070;28;20614;-70
2022/11/05 02:02:06;;;;;;;0.00;0.00;;;;;;;;;;1751291;28;20237;-70
2022/11/05 02:02:58;;;;;;;0.00;0.00;;;;;;;;;;1757133;28;20231;-70
2022/11/05 02:03:51;;;;;;;0.00;0.00;;;;;;;;;;1756323;28;20261;-70
2022/11/05 02:04:44;;;;;;;0.00;0.00;;;;;;;;;;1757096;28;20237;-70
2022/11/05 02:05:36;;;;;;;0.00;0.00;;;;;;;;;;1754979;28;20297;-70
2022/11/05 02:06:28;;;;;;;0.00;0.00;;;;;;;;;;1756042;28;20642;-69
2022/11/05 02:07:23;;;;;;;0.03;0.03;;;;;;;;;;1761521;28;20201;-70
2022/11/05 02:08:18;;;;;;;0.00;0.00;;;;;;;;;;1755278;28;20233;-70
2022/11/05 02:09:13;;;;;;;0.00;0.00;;;;;;;;;;1755893;28;20198;-70
2022/11/05 02:10:05;;;;;;;0.00;0.00;;;;;;;;;;1754924;28;20697;-69
2022/11/05 02:10:57;;;;;;;0.00;0.00;;;;;;;;;;1754403;28;20254;-70
2022/11/05 02:11:49;;;;;;;0.00;0.00;;;;;;;;;;1763938;27;20196;-69
2022/11/05 02:12:43;;;;;;;0.00;0.00;;;;;;;;;;1764723;27;20201;-70
2022/11/05 02:13:35;;;;;;;0.00;0.00;;;;;;;;;;1760394;28;20254;-69
2022/11/05 02:14:27;;;;;;;0.00;0.00;;;;;;;;;;1761903;28;20267;-70
2022/11/05 02:15:24;;;;;;;0.00;0.00;;;;;;;;;;1761996;28;20235;-69
2022/11/05 02:16:21;;;;;;;0.00;0.00;;;;;;;;;;1755584;28;20263;-70
2022/11/05 02:17:17;;;;;;;0.00;0.00;;;;;;;;;;1761311;28;20239;-70
2022/11/05 02:18:14;;;;;;;0.00;0.00;;;;;;;;;;1761465;28;20208;-70
2022/11/05 02:19:14;;;;;;;0.00;0.00;;;;;;;;;;1755795;28;20265;-70
2022/11/05 02:20:18;;;;;;;0.00;0.00;;;;;;;;;;1760804;28;20239;-70
2022/11/05 02:21:39;;;;;;;0.10;0.10;;;;;;;;;;1755102;28;20231;-70
2022/11/05 02:22:55;;;;;;;0.05;0.05;;;;;;;;;;1731854;28;20208;-70
2022/11/05 02:23:53;;;;;;;0.00;0.00;;;;;;;;;;1728203;28;20542;-70
2022/11/05 02:24:56;;;;;;;0.00;0.00;;;;;;;;;;1729922;28;20243;-70
2022/11/05 02:26:01;;;;;;;0.00;0.00;;;;;;;;;;1755639;28;20243;-70
2022/11/05 02:27:02;;;;;;;0.00;0.00;;;;;;;;;;1758091;28;20193;-70
2022/11/05 02:28:07;;;;;;;0.00;0.00;;;;;;;;;;1758875;28;20224;-70
2022/11/05 02:29:32;;;;;;;0.00;0.00;;;;;;;;;;1758975;28;20194;-69
2022/11/05 02:30:27;;;;;;;0.10;0.10;;;;;;;;;;1733001;28;20855;-69
2022/11/05 02:31:21;;;;;;;0.00;0.00;;;;;;;;;;1731944;28;20243;-70
2022/11/05 02:32:17;;;;;;;0.00;0.00;;;;;;;;;;1730924;28;20214;-70
2022/11/05 02:33:22;;;;;;;0.00;0.00;;;;;;;;;;1732404;28;20243;-70
2022/11/05 02:34:18;;;;;;;0.00;0.00;;;;;;;;;;1728295;28;20235;-70
2022/11/05 02:35:15;;;;;;;0.00;0.00;;;;;;;;;;1736978;28;20225;-70
2022/11/05 02:36:15;;;;;;;0.00;0.00;;;;;;;;;;1736996;28;20645;-70
2022/11/05 02:37:10;;;;;;;0.00;0.00;;;;;;;;;;1763289;28;20254;-70
2022/11/05 02:38:06;;;;;;;0.00;0.00;;;;;;;;;;1762038;28;20212;-70
2022/11/05 02:39:04;;;;;;;0.00;0.00;;;;;;;;;;1759389;28;20201;-70
2022/11/05 02:39:57;;;;;;;0.10;0.10;;;;;;;;;;1757256;28;20190;-70
2022/11/05 02:40:50;;;;;;;0.00;0.00;;;;;;;;;;1757876;28;20224;-70
2022/11/05 02:41:46;;;;;;;0.00;0.00;;;;;;;;;;1761242;28;20253;-70
2022/11/05 02:42:42;;;;;;;0.00;0.00;;;;;;;;;;1761019;28;20204;-70
2022/11/05 02:43:42;;;;;;;0.00;0.00;;;;;;;;;;1759442;28;20247;-70
2022/11/05 02:44:35;;;;;;;0.00;0.00;;;;;;;;;;1759909;28;20225;-70
2022/11/05 02:45:35;;;;;;;0.00;0.00;;;;;;;;;;1758990;28;20719;-70
2022/11/05 02:46:31;;;;;;;0.00;0.00;;;;;;;;;;1758000;28;20206;-70
2022/11/05 02:47:26;;;;;;;0.00;0.00;;;;;;;;;;1760975;28;20713;-70
2022/11/05 02:48:21;;;;;;;0.00;0.00;;;;;;;;;;1758926;28;20292;-70
2022/11/05 02:49:18;;;;;;;0.00;0.00;;;;;;;;;;1760584;28;20266;-70
2022/11/05 02:50:16;;;;;;;0.00;0.00;;;;;;;;;;1760982;28;20232;-70
2022/11/05 02:51:12;;;;;;;0.00;0.00;;;;;;;;;;1756014;28;20658;-70
2022/11/05 02:52:06;;;;;;;0.00;0.00;;;;;;;;;;1749075;28;20253;-70
2022/11/05 02:53:01;;;;;;;0.00;0.00;;;;;;;;;;1754121;28;20255;-70
2022/11/05 02:53:56;;;;;;;0.00;0.00;;;;;;;;;;1758455;28;20201;-70
2022/11/05 02:54:52;;;;;;;0.00;0.00;;;;;;;;;;1760863;28;20308;-70
2022/11/05 02:55:46;;;;;;;0.00;0.00;;;;;;;;;;1760963;28;20803;-70
2022/11/05 02:56:40;;;;;;;0.00;0.00;;;;;;;;;;1757801;28;20301;-70
2022/11/05 02:57:33;;;;;;;0.00;0.00;;;;;;;;;;1760163;28;20197;-70
2022/11/05 02:58:28;;;;;;;0.00;0.00;;;;;;;;;;1760245;28;20249;-70
2022/11/05 02:59:19;;;;;;;0.00;0.00;;;;;;;;;;1755119;28;20653;-70
2022/11/05 03:00:26;;;;;;;0.00;0.00;;;;;;;;;;1760271;28;20220;-70
2022/11/05 03:01:18;;;;;;;0.08;0.08;;;;;;;;;;1759287;28;20237;-70
2022/11/05 03:02:10;;;;;;;0.00;0.00;;;;;;;;;;1755780;28;20240;-70
2022/11/05 03:03:03;;;;;;;0.00;0.00;;;;;;;;;;1757796;28;20252;-70
2022/11/05 03:03:56;;;;;;;0.00;0.00;;;;;;;;;;1758351;28;20634;-70
2022/11/05 03:04:47;;;;;;;0.00;0.00;;;;;;;;;;1762301;28;20286;-70
2022/11/05 03:05:43;;;;;;;0.00;0.00;;;;;;;;;;1760693;28;20205;-70
2022/11/05 03:06:39;;;;;;;0.00;0.00;;;;;;;;;;1759039;28;20201;-70
2022/11/05 03:07:35;;;;;;;0.00;0.00;;;;;;;;;;1760716;28;20544;-69
2022/11/05 03:08:33;;;;;;;0.08;0.08;;;;;;;;;;1761871;28;20208;-70
2022/11/05 03:09:34;;;;;;;0.10;0.10;;;;;;;;;;1762400;28;20205;-69
2022/11/05 03:10:36;;;;;;;0.00;0.00;;;;;;;;;;1759707;28;20225;-70
2022/11/05 03:11:30;;;;;;;0.00;0.00;;;;;;;;;;1759350;28;20221;-70
2022/11/05 03:12:25;;;;;;;0.00;0.00;;;;;;;;;;1761682;27;20208;-70
2022/11/05 03:13:22;;;;;;;0.00;0.00;;;;;;;;;;1764871;27;20200;-70
2022/11/05 03:14:18;;;;;;;0.00;0.00;;;;;;;;;;1758183;28;20206;-70
2022/11/05 03:15:16;;;;;;;0.00;0.00;;;;;;;;;;1757016;28;20205;-70
2022/11/05 03:16:15;;;;;;;0.00;0.00;;;;;;;;;;1756574;28;20638;-69
2022/11/05 03:17:10;;;;;;;0.00;0.00;;;;;;;;;;1758079;28;20219;-69
2022/11/05 03:18:05;;;;;;;0.00;0.00;;;;;;;;;;1759892;28;20318;-69
2022/11/05 03:19:01;;;;;;;0.00;0.00;;;;;;;;;;1761430;28;20312;-70
2022/11/05 03:19:54;;;;;;;0.08;0.08;;;;;;;;;;1762748;28;20197;-69
2022/11/05 03:20:49;;;;;;;0.00;0.00;;;;;;;;;;1760583;28;20197;-69
2022/11/05 03:21:44;;;;;;;0.00;0.00;;;;;;;;;;1762393;28;20205;-70
2022/11/05 03:22:39;;;;;;;0.00;0.00;;;;;;;;;;1760716;28;20205;-70
2022/11/05 03:23:32;;;;;;;0.00;0.00;;;;;;;;;;1762724;28;20246;-70
2022/11/05 03:24:27;;;;;;;0.00;0.00;;;;;;;;;;1762631;28;20818;-69
2022/11/05 03:25:20;;;;;;;0.00;0.00;;;;;;;;;;1757686;28;20258;-70
2022/11/05 03:26:16;;;;;;;0.00;0.00;;;;;;;;;;1761612;28;20250;-70
2022/11/05 03:27:08;;;;;;;0.00;0.00;;;;;;;;;;1760901;28;20201;-70
2022/11/05 03:28:04;;;;;;;0.20;0.20;;;;;;;;;;1758041;28;20189;-70
2022/11/05 03:28:58;;;;;;;0.00;0.00;;;;;;;;;;1761211;28;20285;-70
2022/11/05 03:29:52;;;;;;;0.00;0.00;;;;;;;;;;1761971;28;20580;-70
2022/11/05 03:30:44;;;;;;;0.00;0.00;;;;;;;;;;1761682;28;20630;-70
2022/11/05 03:31:37;;;;;;;0.00;0.00;;;;;;;;;;1758818;28;20209;-69
2022/11/05 03:32:32;;;;;;;0.00;0.00;;;;;;;;;;1764995;27;20204;-70
2022/11/05 03:33:26;;;;;;;0.00;0.00;;;;;;;;;;1764038;27;20211;-69
2022/11/05 03:34:18;;;;;;;0.00;0.00;;;;;;;;;;1757435;28;20237;-70
2022/11/05 03:35:13;;;;;;;0.00;0.00;;;;;;;;;;1756721;28;20205;-69
2022/11/05 03:36:06;;;;;;;0.00;0.00;;;;;;;;;;1757553;27;20320;-69
2022/11/05 03:36:59;;;;;;;0.00;0.00;;;;;;;;;;1759787;28;20193;-70
2022/11/05 03:37:52;;;;;;;0.00;0.00;;;;;;;;;;1763161;27;20224;-70
2022/11/05 03:38:46;;;;;;;0.00;0.00;;;;;;;;;;1760040;28;20205;-70
2022/11/05 03:39:40;;;;;;;0.00;0.00;;;;;;;;;;1753185;28;20627;-70
2022/11/05 03:40:33;;;;;;;0.00;0.00;;;;;;;;;;1761299;28;20201;-70
2022/11/05 03:41:25;;;;;;;0.00;0.00;;;;;;;;;;1762536;28;20247;-70
2022/11/05 03:42:18;;;;;;;0.00;0.00;;;;;;;;;;1752122;28;20254;-70
2022/11/05 03:43:09;;;;;;;0.00;0.00;;;;;;;;;;1755425;28;20209;-70
2022/11/05 03:44:04;;;;;;;0.00;0.00;;;;;;;;;;1755214;28;20619;-70
2022/11/05 03:44:56;;;;;;;0.10;0.10;;;;;;;;;;1755897;28;20248;-69
2022/11/05 03:45:49;;;;;;;0.00;0.00;;;;;;;;;;1755682;28;20625;-69
2022/11/05 03:46:43;;;;;;;0.00;0.00;;;;;;;;;;1761410;28;20239;-70
2022/11/05 03:47:38;;;;;;;0.00;0.00;;;;;;;;;;1762287;27;20193;-69
2022/11/05 03:48:30;;;;;;;0.00;0.00;;;;;;;;;;1762065;28;20193;-69
2022/11/05 03:49:25;;;;;;;0.00;0.00;;;;;;;;;;1761774;28;20715;-70
2022/11/05 03:50:20;;;;;;;0.00;0.00;;;;;;;;;;1762791;28;20209;-69
2022/11/05 03:51:14;;;;;;;0.00;0.00;;;;;;;;;;1757689;28;20201;-70
2022/11/05 03:52:07;;;;;;;0.10;0.10;;;;;;;;;;1751586;28;20241;-70
2022/11/05 03:53:01;;;;;;;0.00;0.00;;;;;;;;;;1757135;28;20198;-70
2022/11/05 03:53:55;;;;;;;0.00;0.00;;;;;;;;;;1753369;28;20232;-70
2022/11/05 03:54:47;;;;;;;0.00;0.00;;;;;;;;;;1759605;28;20202;-70
2022/11/05 03:55:41;;;;;;;0.00;0.00;;;;;;;;;;1765854;27;20634;-70
2022/11/05 03:56:36;;;;;;;0.00;0.00;;;;;;;;;;1762181;28;20201;-70
2022/11/05 03:57:29;;;;;;;0.00;0.00;;;;;;;;;;1758480;28;20221;-70
2022/11/05 03:58:22;;;;;;;0.00;0.00;;;;;;;;;;1762483;28;20248;-70
2022/11/05 03:59:13;;;;;;;0.00;0.00;;;;;;;;;;1759725;28;20201;-70
2022/11/05 04:00:07;;;;;;;0.00;0.00;;;;;;;;;;1762459;28;20196;-70
2022/11/05 04:00:59;;;;;;;0.00;0.00;;;;;;;;;;1760924;28;20324;-69
2022/11/05 04:01:51;;;;;;;0.00;0.00;;;;;;;;;;1758778;28;20938;-70
2022/11/05 04:02:43;;;;;;;0.00;0.00;;;;;;;;;;1758626;28;20205;-69
2022/11/05 04:03:35;;;;;;;0.10;0.10;;;;;;;;;;1760092;28;20542;-70
2022/11/05 04:04:26;;;;;;;0.00;0.00;;;;;;;;;;1761557;28;20212;-69
2022/11/05 04:05:19;;;;;;;0.10;0.10;;;;;;;;;;1762604;28;20235;-70
2022/11/05 04:13:25;;;;;;;0.00;0.00;;;;;;;;;;1758893;28;20219;-70
2022/11/05 04:14:16;;;;;;;0.00;0.00;;;;;;;;;;1758400;28;20202;-70
2022/11/05 04:15:09;;;;;;;0.00;0.00;;;;;;;;;;1757332;28;20308;-70
2022/11/05 04:17:15;;;;;;;0.00;0.00;;;;;;;;;;1746778;28;20295;-70
2022/11/05 04:18:08;;;;;;;0.00;0.00;;;;;;;;;;1740591;28;20207;-70
2022/11/05 04:19:00;;;;;;;0.00;0.00;;;;;;;;;;1747030;28;20226;-70
2022/11/05 04:24:30;;;;;;;0.00;0.00;;;;;;;;;;1755891;28;20197;-69
2022/11/05 04:25:22;;;;;;;0.00;0.00;;;;;;;;;;1762568;28;20272;-69
2022/11/05 04:26:14;;;;;;;0.00;0.00;;;;;;;;;;1756780;28;20530;-70
2022/11/05 04:27:06;;;;;;;0.00;0.00;;;;;;;;;;1760596;28;20282;-70
2022/11/05 04:28:00;;;;;;;0.00;0.00;;;;;;;;;;1756529;28;20201;-70
2022/11/05 04:30:18;;;;;;;0.00;0.00;;;;;;;;;;1756101;28;20217;-70
2022/11/05 04:31:09;;;;;;;0.00;0.00;;;;;;;;;;1758654;28;20223;-70
2022/11/05 04:32:01;;;;;;;0.00;0.00;;;;;;;;;;1754865;28;20285;-70
2022/11/05 04:32:55;;;;;;;0.00;0.00;;;;;;;;;;1761660;28;20239;-70
2022/11/05 04:33:49;;;;;;;0.00;0.00;;;;;;;;;;1761800;28;20208;-70
2022/11/05 04:34:40;;;;;;;0.00;0.00;;;;;;;;;;1762079;28;20694;-70
2022/11/05 04:35:34;;;;;;;0.00;0.00;;;;;;;;;;1762139;28;20208;-70
2022/11/05 04:36:25;;;;;;;0.00;0.00;;;;;;;;;;1760566;28;20274;-70
2022/11/05 04:37:17;;;;;;;0.00;0.00;;;;;;;;;;1764123;27;20222;-70
2022/11/05 04:38:10;;;;;;;0.00;0.00;;;;;;;;;;1760557;28;20236;-70
2022/11/05 04:39:01;;;;;;;0.00;0.00;;;;;;;;;;1759176;28;20688;-70
2022/11/05 04:39:53;;;;;;;0.00;0.00;;;;;;;;;;1759053;28;20205;-70
2022/11/05 04:40:46;;;;;;;0.00;0.00;;;;;;;;;;1761394;28;20233;-70
2022/11/05 04:41:37;;;;;;;0.00;0.00;;;;;;;;;;1759066;28;20514;-70
2022/11/05 04:42:28;;;;;;;0.00;0.00;;;;;;;;;;1761286;28;20200;-70
2022/11/05 04:43:20;;;;;;;0.00;0.00;;;;;;;;;;1760319;28;20201;-70
2022/11/05 04:44:11;;;;;;;0.00;0.00;;;;;;;;;;1761438;28;20313;-70
2022/11/05 04:45:06;;;;;;;0.08;0.08;;;;;;;;;;1762316;28;20212;-70
2022/11/05 04:45:57;;;;;;;0.00;0.00;;;;;;;;;;1760611;28;20236;-70
2022/11/05 04:46:49;;;;;;;0.00;0.00;;;;;;;;;;1758648;28;20570;-70
2022/11/05 04:47:40;;;;;;;0.00;0.00;;;;;;;;;;1760089;28;20270;-70
2022/11/05 04:48:32;;;;;;;0.00;0.00;;;;;;;;;;1761641;28;20260;-70
2022/11/05 04:49:25;;;;;;;0.00;0.00;;;;;;;;;;1761784;28;20216;-70
2022/11/05 04:50:17;;;;;;;0.00;0.00;;;;;;;;;;1762355;28;20263;-70
2022/11/05 04:51:08;;;;;;;0.00;0.00;;;;;;;;;;1756981;28;20248;-70
2022/11/05 04:52:00;;;;;;;0.00;0.00;;;;;;;;;;1761524;28;20197;-70
2022/11/05 04:52:51;;;;;;;0.00;0.00;;;;;;;;;;1763963;27;20207;-70
2022/11/05 04:53:43;;;;;;;0.00;0.00;;;;;;;;;;1764593;27;21047;-70
2022/11/05 04:54:34;;;;;;;0.00;0.00;;;;;;;;;;1761878;27;20209;-70
2022/11/05 04:55:27;;;;;;;0.00;0.00;;;;;;;;;;1762078;28;20756;-70
2022/11/05 04:56:19;;;;;;;0.10;0.10;;;;;;;;;;1762962;27;20244;-69
2022/11/05 04:57:11;;;;;;;0.00;0.00;;;;;;;;;;1758352;28;20197;-69
2022/11/05 04:58:02;;;;;;;0.00;0.00;;;;;;;;;;1752400;28;20706;-69
2022/11/05 04:58:54;;;;;;;0.00;0.00;;;;;;;;;;1756253;28;20316;-69
2022/11/05 04:59:47;;;;;;;0.10;0.10;;;;;;;;;;1761490;28;20233;-69
2022/11/05 05:00:39;;;;;;;0.00;0.00;;;;;;;;;;1761060;28;20193;-69
2022/11/05 05:01:30;;;;;;;0.00;0.00;;;;;;;;;;1756887;28;20209;-70
2022/11/05 05:02:21;;;;;;;0.00;0.00;;;;;;;;;;1754351;28;20259;-70
2022/11/05 05:03:13;;;;;;;0.00;0.00;;;;;;;;;;1752080;28;20208;-70
2022/11/05 05:04:04;;;;;;;0.00;0.00;;;;;;;;;;1760200;28;20212;-70
2022/11/05 05:04:58;;;;;;;0.00;0.00;;;;;;;;;;1761944;28;20193;-70
2022/11/05 05:05:49;;;;;;;0.00;0.00;;;;;;;;;;1760772;28;20246;-70
2022/11/05 05:06:41;;;;;;;0.00;0.00;;;;;;;;;;1753533;28;20194;-70
2022/11/05 05:07:32;;;;;;;0.00;0.00;;;;;;;;;;1759890;28;20247;-70
2022/11/05 05:08:24;;;;;;;0.05;0.05;;;;;;;;;;1760634;28;20597;-70
2022/11/05 05:09:15;;;;;;;0.00;0.00;;;;;;;;;;1761538;28;20618;-70
2022/11/05 05:10:08;;;;;;;0.00;0.00;;;;;;;;;;1762204;28;20232;-70
2022/11/05 05:11:00;;;;;;;0.10;0.10;;;;;;;;;;1760726;28;20204;-70
2022/11/05 05:11:52;;;;;;;0.10;0.10;;;;;;;;;;1761773;27;20288;-70
2022/11/05 05:12:43;;;;;;;0.00;0.00;;;;;;;;;;1760026;28;20240;-70
2022/11/05 05:13:36;;;;;;;0.00;0.00;;;;;;;;;;1761875;28;20207;-70
2022/11/05 05:14:27;;;;;;;0.10;0.10;;;;;;;;;;1760773;28;20572;-70
2022/11/05 05:15:19;;;;;;;0.20;0.20;;;;;;;;;;1755137;28;20240;-70
2022/11/05 05:16:16;;;;;;;0.00;0.00;;;;;;;;;;1760097;28;20232;-70
2022/11/05 05:17:08;;;;;;;0.00;0.00;;;;;;;;;;1762618;27;20234;-70
2022/11/05 05:17:59;;;;;;;0.00;0.00;;;;;;;;;;1763759;27;20652;-69
2022/11/05 05:18:51;;;;;;;0.00;0.00;;;;;;;;;;1759136;28;20214;-69
2022/11/05 05:22:07;;;;;;;0.00;0.00;;;;;;;;;;1756023;28;20211;-69
2022/11/05 05:22:59;;;;;;;0.10;0.10;;;;;;;;;;1758255;28;20198;-70
2022/11/05 05:23:50;;;;;;;0.00;0.00;;;;;;;;;;1757943;28;20202;-69
2022/11/05 05:24:42;;;;;;;0.00;0.00;;;;;;;;;;1761893;28;20845;-70
2022/11/05 05:25:33;;;;;;;0.00;0.00;;;;;;;;;;1761941;28;20957;-69
2022/11/05 05:26:25;;;;;;;0.10;0.10;;;;;;;;;;1761296;28;20197;-70
2022/11/05 05:27:16;;;;;;;0.10;0.10;;;;;;;;;;1760954;28;20228;-70
2022/11/05 05:28:08;;;;;;;0.00;0.00;;;;;;;;;;1759920;28;20215;-70
2022/11/05 05:29:00;;;;;;;0.00;0.00;;;;;;;;;;1761285;28;20236;-70
2022/11/05 05:29:52;;;;;;;0.00;0.00;;;;;;;;;;1760972;28;20185;-70
2022/11/05 05:30:43;;;;;;;0.10;0.10;;;;;;;;;;1757798;28;20274;-70
2022/11/05 05:31:35;;;;;;;0.10;0.10;;;;;;;;;;1760701;28;20228;-70
2022/11/05 05:32:26;;;;;;;0.10;0.10;;;;;;;;;;1758233;28;20227;-69
2022/11/05 05:33:18;;;;;;;0.10;0.10;;;;;;;;;;1758273;28;20901;-69
2022/11/05 05:34:10;;;;;;;0.00;0.00;;;;;;;;;;1761401;28;20235;-69
2022/11/05 05:35:06;;;;;;;0.20;0.20;;;;;;;;;;1761121;28;20192;-69
2022/11/05 05:35:58;;;;;;;0.00;0.00;;;;;;;;;;1761502;28;20811;-70
2022/11/05 05:36:51;;;;;;;0.10;0.10;;;;;;;;;;1759744;28;20210;-70
2022/11/05 05:37:42;;;;;;;0.00;0.00;;;;;;;;;;1761562;28;20224;-70
2022/11/05 05:38:34;;;;;;;0.00;0.00;;;;;;;;;;1760632;28;20270;-70
2022/11/05 05:39:25;;;;;;;0.00;0.00;;;;;;;;;;1761560;28;20236;-70
2022/11/05 05:40:18;;;;;;;0.00;0.00;;;;;;;;;;1762166;28;20224;-70
2022/11/05 05:41:09;;;;;;;0.10;0.10;;;;;;;;;;1761168;28;20223;-69
2022/11/05 05:42:01;;;;;;;0.08;0.08;;;;;;;;;;1761715;28;20230;-70
2022/11/05 05:42:53;;;;;;;0.10;0.10;;;;;;;;;;1761398;28;20244;-69
2022/11/05 05:43:45;;;;;;;0.10;0.10;;;;;;;;;;1759962;28;20200;-69
2022/11/05 05:44:36;;;;;;;0.10;0.10;;;;;;;;;;1759886;28;20216;-70
2022/11/05 05:45:28;;;;;;;0.00;0.00;;;;;;;;;;1758297;28;20209;-70
2022/11/05 05:46:19;;;;;;;0.10;0.10;;;;;;;;;;1760921;28;20205;-70
2022/11/05 05:47:11;;;;;;;0.15;0.15;;;;;;;;;;1760768;28;20201;-70
2022/11/05 05:48:03;;;;;;;0.10;0.10;;;;;;;;;;1761084;28;20205;-70
2022/11/05 05:48:55;;;;;;;0.00;0.00;;;;;;;;;;1761398;28;20788;-70
2022/11/05 05:49:46;;;;;;;0.00;0.00;;;;;;;;;;1761608;28;21826;-70
2022/11/05 05:50:38;;;;;;;0.00;0.00;;;;;;;;;;1752792;28;20205;-70
2022/11/05 05:51:30;;;;;;;0.00;0.00;;;;;;;;;;1751562;28;20237;-70
2022/11/05 05:52:22;;;;;;;0.00;0.00;;;;;;;;;;1756788;28;20278;-70
2022/11/05 05:53:13;;;;;;;0.10;0.10;;;;;;;;;;1758489;27;20293;-70
2022/11/05 05:54:05;;;;;;;0.10;0.10;;;;;;;;;;1762135;27;20232;-70
2022/11/05 05:54:56;;;;;;;0.10;0.10;;;;;;;;;;1756792;28;20231;-70
2022/11/05 05:55:48;;;;;;;0.00;0.00;;;;;;;;;;1758330;28;20252;-70
2022/11/05 05:56:39;;;;;;;0.00;0.00;;;;;;;;;;1759647;28;20254;-70
2022/11/05 05:57:31;;;;;;;0.00;0.00;;;;;;;;;;1761250;28;20220;-69
2022/11/05 05:58:23;;;;;;;0.10;0.10;;;;;;;;;;1761725;28;20258;-69
2022/11/05 05:59:15;;;;;;;0.00;0.00;;;;;;;;;;1761278;28;20288;-69
2022/11/05 06:00:06;;;;;;;0.00;0.00;;;;;;;;;;1761684;28;20280;-69
2022/11/05 06:01:01;;;;;;;0.00;0.00;;;;;;;;;;1756592;28;20197;-69
2022/11/05 06:01:52;;;;;;;0.00;0.00;;;;;;;;;;1761252;28;20521;-69